Time;durP1;ratioP1;P1;durP2;ratioP2;P2;SDS_P1;SDS_P2;PMS_P1;PMS_P2;Temp;Humidity;BMP_temperature;BMP_pressure;BME280_temperature;BME280_humidity;BME280_pressure;Samples;Min_cycle;Max_cycle;Signal;HPM_P1;HPM_P2
2021/04/22 00:00:21;;;;;;;6.57;1.03;;;;;;;;;;10322645;28;20103;-60
2021/04/22 00:05:18;;;;;;;3.80;1.33;;;;;;;;;;10330393;28;20044;-62
2021/04/22 00:10:16;;;;;;;3.77;2.27;;;;;;;;;;10330378;28;20030;-61
2021/04/22 00:15:15;;;;;;;4.82;1.60;;;;;;;;;;10322075;28;20033;-61
2021/04/22 00:20:13;;;;;;;4.00;2.00;;;;;;;;;;10319832;28;20518;-61
2021/04/22 00:25:11;;;;;;;;;;;;;;;;;;10339393;28;20136;-62
2021/04/22 00:30:12;;;;;;;4.82;1.33;;;;;;;;;;10326260;28;20019;-62
2021/04/22 00:35:15;;;;;;;16.40;2.15;;;;;;;;;;10337851;22;20053;-65
2021/04/22 00:40:14;;;;;;;7.03;1.60;;;;;;;;;;10293112;28;20064;-64
2021/04/22 00:45:12;;;;;;;4.72;1.55;;;;;;;;;;10310965;28;20465;-65
2021/04/22 00:50:15;;;;;;;12.52;2.22;;;;;;;;;;10283701;28;20121;-64
2021/04/22 00:55:12;;;;;;;6.75;1.58;;;;;;;;;;10291716;28;20490;-65
2021/04/22 01:00:10;;;;;;;3.13;0.80;;;;;;;;;;10284320;28;20033;-65
2021/04/22 01:05:12;;;;;;;6.55;1.02;;;;;;;;;;10274529;28;20045;-65
2021/04/22 01:10:11;;;;;;;9.30;2.33;;;;;;;;;;10289347;28;20036;-65
2021/04/22 01:15:10;;;;;;;2.55;1.10;;;;;;;;;;10268738;28;20486;-64
2021/04/22 01:20:09;;;;;;;4.88;0.95;;;;;;;;;;10277241;28;20433;-64
2021/04/22 01:25:06;;;;;;;;;;;;;;;;;;10309159;28;20502;-65
2021/04/22 01:30:05;;;;;;;8.65;1.65;;;;;;;;;;10278922;28;20306;-64
2021/04/22 01:35:07;;;;;;;3.58;1.33;;;;;;;;;;10285356;28;20044;-64
2021/04/22 01:40:05;;;;;;;7.22;1.73;;;;;;;;;;10280350;28;20052;-63
2021/04/22 01:45:03;;;;;;;3.57;1.47;;;;;;;;;;10295249;28;20026;-64
2021/04/22 01:50:01;;;;;;;2.70;1.38;;;;;;;;;;10289280;28;20497;-64
2021/04/22 01:54:58;;;;;;;7.50;1.57;;;;;;;;;;10298556;28;20501;-63
2021/04/22 01:59:55;;;;;;;8.33;1.67;;;;;;;;;;10298301;28;20049;-64
2021/04/22 02:04:53;;;;;;;7.20;2.23;;;;;;;;;;10300379;28;20044;-63
2021/04/22 02:09:51;;;;;;;8.93;1.93;;;;;;;;;;10298816;28;20384;-63
2021/04/22 02:14:48;;;;;;;10.10;1.93;;;;;;;;;;10281120;28;20530;-64
2021/04/22 02:19:46;;;;;;;5.00;1.73;;;;;;;;;;10290043;28;20071;-65
2021/04/22 02:24:43;;;;;;;6.17;1.17;;;;;;;;;;10277249;28;20025;-65
2021/04/22 02:29:40;;;;;;;13.63;1.73;;;;;;;;;;10303764;28;20060;-65
2021/04/22 02:34:39;;;;;;;5.90;0.80;;;;;;;;;;10295472;28;20029;-64
2021/04/22 02:39:36;;;;;;;3.92;0.93;;;;;;;;;;10296396;28;20259;-65
2021/04/22 02:44:34;;;;;;;3.00;0.80;;;;;;;;;;10281121;28;20474;-65
2021/04/22 02:49:31;;;;;;;10.30;1.77;;;;;;;;;;10290707;28;20382;-64
2021/04/22 02:54:29;;;;;;;8.07;2.13;;;;;;;;;;10289175;28;20080;-64
2021/04/22 02:59:26;;;;;;;4.17;1.43;;;;;;;;;;10283031;28;20056;-65
2021/04/22 03:04:23;;;;;;;8.73;1.93;;;;;;;;;;10281809;28;20061;-62
2021/04/22 03:09:21;;;;;;;5.43;1.13;;;;;;;;;;10284550;28;20080;-64
2021/04/22 03:14:18;;;;;;;7.23;1.13;;;;;;;;;;10291760;28;20030;-64
2021/04/22 03:19:16;;;;;;;4.57;0.90;;;;;;;;;;10295192;28;20114;-64
2021/04/22 03:24:13;;;;;;;6.30;1.23;;;;;;;;;;10287896;28;20074;-64
2021/04/22 03:29:11;;;;;;;5.67;1.17;;;;;;;;;;10299712;28;20040;-64
2021/04/22 03:34:08;;;;;;;7.30;1.27;;;;;;;;;;10285275;28;20548;-63
2021/04/22 03:39:06;;;;;;;5.00;1.53;;;;;;;;;;10291795;28;20084;-63
2021/04/22 03:44:03;;;;;;;2.83;1.23;;;;;;;;;;10282514;28;20079;-63
2021/04/22 03:49:01;;;;;;;9.10;1.67;;;;;;;;;;10298641;28;20661;-63
2021/04/22 03:53:58;;;;;;;5.93;1.73;;;;;;;;;;10293337;28;20025;-63
2021/04/22 03:58:56;;;;;;;5.83;1.87;;;;;;;;;;10280995;28;20125;-62
2021/04/22 04:03:53;;;;;;;5.50;1.40;;;;;;;;;;10284823;28;20491;-64
2021/04/22 04:08:51;;;;;;;2.43;0.97;;;;;;;;;;10286258;28;20699;-66
2021/04/22 04:13:48;;;;;;;4.57;1.77;;;;;;;;;;10296333;28;20037;-65
2021/04/22 04:18:45;;;;;;;12.30;2.17;;;;;;;;;;10289298;28;20150;-65
2021/04/22 04:23:43;;;;;;;7.30;1.50;;;;;;;;;;10277338;28;20136;-64
2021/04/22 04:28:40;;;;;;;4.77;1.77;;;;;;;;;;10285052;28;20042;-65
2021/04/22 04:33:37;;;;;;;6.60;1.90;;;;;;;;;;10292809;28;20034;-65
2021/04/22 04:38:35;;;;;;;6.97;1.60;;;;;;;;;;10282552;28;20037;-65
2021/04/22 04:43:32;;;;;;;10.57;1.63;;;;;;;;;;10287995;28;20025;-64
2021/04/22 04:48:30;;;;;;;4.10;1.17;;;;;;;;;;10281914;28;20052;-65
2021/04/22 04:53:27;;;;;;;10.37;2.20;;;;;;;;;;10299643;28;20035;-65
2021/04/22 04:58:24;;;;;;;2.03;0.77;;;;;;;;;;10285158;28;20036;-65
2021/04/22 05:03:22;;;;;;;13.07;1.60;;;;;;;;;;10292948;28;20040;-66
2021/04/22 05:08:19;;;;;;;7.87;2.00;;;;;;;;;;10280048;28;20048;-65
2021/04/22 05:13:17;;;;;;;5.40;1.20;;;;;;;;;;10276665;28;20041;-65
2021/04/22 05:18:14;;;;;;;7.70;1.73;;;;;;;;;;10291523;28;20491;-66
2021/04/22 05:23:11;;;;;;;5.60;1.37;;;;;;;;;;10277968;28;20030;-66
2021/04/22 05:28:09;;;;;;;12.47;1.70;;;;;;;;;;10280271;28;20121;-66
2021/04/22 05:33:07;;;;;;;3.40;1.47;;;;;;;;;;10270529;28;20128;-66
2021/04/22 05:38:05;;;;;;;15.32;1.92;;;;;;;;;;10273779;28;20073;-66
2021/04/22 05:43:06;;;;;;;6.68;1.00;;;;;;;;;;10276065;28;20045;-64
2021/04/22 05:48:04;;;;;;;5.10;1.92;;;;;;;;;;10285500;28;20772;-65
2021/04/22 05:53:02;;;;;;;9.48;2.33;;;;;;;;;;10277609;28;20063;-65
2021/04/22 05:58:00;;;;;;;6.55;1.70;;;;;;;;;;10292862;28;20041;-65
2021/04/22 06:02:58;;;;;;;11.03;1.60;;;;;;;;;;10274539;28;20125;-64
2021/04/22 06:07:55;;;;;;;8.80;1.73;;;;;;;;;;10277144;28;20626;-65
2021/04/22 06:12:53;;;;;;;6.60;1.60;;;;;;;;;;10275347;28;20038;-65
2021/04/22 06:17:50;;;;;;;11.20;2.40;;;;;;;;;;10281169;28;20040;-66
2021/04/22 06:22:49;;;;;;;7.47;2.07;;;;;;;;;;10270402;28;20380;-67
2021/04/22 06:27:46;;;;;;;9.32;2.10;;;;;;;;;;10288031;28;20037;-65
2021/04/22 06:32:44;;;;;;;5.57;1.90;;;;;;;;;;10288897;28;20525;-66
2021/04/22 06:37:42;;;;;;;3.67;1.40;;;;;;;;;;10280312;28;20037;-66
2021/04/22 06:42:40;;;;;;;16.33;1.97;;;;;;;;;;10286077;28;20029;-65
2021/04/22 06:47:37;;;;;;;;;;;;;;;;;;10277710;28;20490;-65
2021/04/22 06:52:35;;;;;;;10.85;1.70;;;;;;;;;;10285274;28;19999;-65
2021/04/22 06:57:32;;;;;;;6.43;2.23;;;;;;;;;;10289672;28;20496;-66
2021/04/22 07:02:30;;;;;;;8.50;2.77;;;;;;;;;;10286478;28;20041;-65
2021/04/22 07:07:27;;;;;;;11.10;2.70;;;;;;;;;;10295722;28;20029;-66
2021/04/22 07:12:25;;;;;;;4.77;1.93;;;;;;;;;;10285116;28;20041;-66
2021/04/22 07:17:23;;;;;;;8.70;2.03;;;;;;;;;;10287865;28;20033;-65
2021/04/22 07:22:23;;;;;;;8.13;1.77;;;;;;;;;;10294311;28;20040;-65
2021/04/22 07:27:21;;;;;;;4.70;1.13;;;;;;;;;;10282827;28;20033;-66
2021/04/22 07:32:20;;;;;;;11.47;2.20;;;;;;;;;;10289421;28;20045;-65
2021/04/22 07:37:18;;;;;;;8.27;1.83;;;;;;;;;;10285117;28;20094;-66
2021/04/22 07:42:15;;;;;;;5.27;1.57;;;;;;;;;;10275379;28;21145;-65
2021/04/22 07:47:17;;;;;;;8.77;2.63;;;;;;;;;;10285223;28;20033;-65
2021/04/22 07:52:15;;;;;;;11.68;2.50;;;;;;;;;;10263466;28;20026;-67
2021/04/22 07:57:12;;;;;;;7.07;1.87;;;;;;;;;;10282629;28;20037;-66
2021/04/22 08:02:11;;;;;;;15.93;2.20;;;;;;;;;;10279896;28;20056;-66
2021/04/22 08:07:08;;;;;;;;;;;;;;;;;;10283131;28;20107;-65
2021/04/22 08:12:06;;;;;;;8.10;2.28;;;;;;;;;;10269393;28;19917;-65
2021/04/22 08:17:03;;;;;;;10.03;2.20;;;;;;;;;;10280092;28;20143;-65
2021/04/22 08:22:01;;;;;;;9.80;1.70;;;;;;;;;;10282917;28;20532;-66
2021/04/22 08:26:58;;;;;;;7.03;2.23;;;;;;;;;;10280507;28;20021;-66
2021/04/22 08:31:56;;;;;;;16.23;2.67;;;;;;;;;;10284079;28;20041;-66
2021/04/22 08:36:53;;;;;;;7.80;2.67;;;;;;;;;;10279612;28;20048;-66
2021/04/22 08:41:51;;;;;;;3.23;1.47;;;;;;;;;;10276218;28;20044;-65
2021/04/22 08:46:48;;;;;;;3.80;1.77;;;;;;;;;;10272533;28;20200;-66
2021/04/22 08:51:46;;;;;;;10.33;2.30;;;;;;;;;;10267876;28;20045;-66
2021/04/22 08:56:45;;;;;;;7.83;1.60;;;;;;;;;;10278847;28;20034;-65
2021/04/22 09:01:43;;;;;;;3.33;2.03;;;;;;;;;;10280150;28;20350;-65
2021/04/22 09:06:40;;;;;;;13.80;2.47;;;;;;;;;;10275205;28;20770;-65
2021/04/22 09:11:43;;;;;;;3.17;1.40;;;;;;;;;;10283038;28;20029;-66
2021/04/22 09:16:41;;;;;;;6.13;1.73;;;;;;;;;;10283751;28;20072;-66
2021/04/22 09:21:41;;;;;;;6.57;2.03;;;;;;;;;;10268238;28;20064;-64
2021/04/22 09:32:19;;;;;;;2.95;1.42;;;;;;;;;;10893287;23;20055;-66
2021/04/22 09:37:19;;;;;;;9.47;2.20;;;;;;;;;;10073033;28;20062;-65
2021/04/22 09:42:18;;;;;;;8.90;3.13;;;;;;;;;;10089563;28;20039;-64
2021/04/22 09:47:16;;;;;;;;;;;;;;;;;;10073946;28;20044;-65
2021/04/22 09:52:17;;;;;;;6.93;2.40;;;;;;;;;;10085171;29;19915;-65
2021/04/22 09:57:25;;;;;;;9.88;2.33;;;;;;;;;;10084416;29;20027;-65
2021/04/22 10:02:23;;;;;;;3.55;1.55;;;;;;;;;;10068560;29;20731;-65
2021/04/22 10:07:25;;;;;;;3.45;1.48;;;;;;;;;;10120405;28;20420;-66
2021/04/22 10:12:24;;;;;;;6.47;1.52;;;;;;;;;;10121245;28;20028;-67
2021/04/22 10:17:22;;;;;;;7.85;1.60;;;;;;;;;;10085567;28;20040;-66
2021/04/22 10:22:46;;;;;;;5.13;1.63;;;;;;;;;;10068162;29;20036;-66
2021/04/22 10:27:44;;;;;;;5.68;1.70;;;;;;;;;;10076374;28;20051;-65
2021/04/22 10:32:43;;;;;;;11.32;3.25;;;;;;;;;;10077792;28;20047;-65
2021/04/22 10:37:41;;;;;;;6.55;2.15;;;;;;;;;;10094543;28;20527;-66
2021/04/22 10:42:39;;;;;;;7.38;2.65;;;;;;;;;;10079976;28;20172;-65
2021/04/22 10:47:37;;;;;;;7.30;1.80;;;;;;;;;;10072560;28;20115;-65
2021/04/22 10:52:34;;;;;;;6.43;1.97;;;;;;;;;;10088698;28;20126;-65
2021/04/22 10:57:32;;;;;;;4.43;1.80;;;;;;;;;;10079399;28;20078;-66
2021/04/22 11:02:39;;;;;;;3.43;1.57;;;;;;;;;;10074472;29;20032;-67
2021/04/22 11:07:36;;;;;;;5.55;1.70;;;;;;;;;;10083916;29;20043;-65
2021/04/22 11:12:35;;;;;;;2.80;1.27;;;;;;;;;;10098698;28;20035;-67
2021/04/22 11:17:35;;;;;;;6.60;1.27;;;;;;;;;;10095108;28;20027;-66
2021/04/22 11:22:32;;;;;;;5.25;1.38;;;;;;;;;;10095971;28;20110;-66
2021/04/22 11:27:31;;;;;;;5.90;2.23;;;;;;;;;;10092916;29;20114;-67
2021/04/22 11:32:28;;;;;;;;;;;;;;;;;;10089977;29;20043;-66
2021/04/22 11:37:38;;;;;;;9.43;2.20;;;;;;;;;;10090195;29;19921;-65
2021/04/22 11:42:37;;;;;;;11.02;2.58;;;;;;;;;;10133228;28;20054;-65
2021/04/22 11:47:35;;;;;;;3.70;1.50;;;;;;;;;;10130342;28;20034;-65
2021/04/22 11:52:43;;;;;;;3.72;1.65;;;;;;;;;;10122718;28;20031;-66
2021/04/22 11:57:54;;;;;;;5.72;1.90;;;;;;;;;;10135121;28;20043;-66
2021/04/22 12:02:52;;;;;;;4.70;1.70;;;;;;;;;;10118733;28;21190;-65
2021/04/22 12:08:05;;;;;;;8.37;1.83;;;;;;;;;;10134671;28;20450;-67
2021/04/22 12:13:04;;;;;;;4.47;1.52;;;;;;;;;;10128325;28;20539;-66
2021/04/22 12:18:02;;;;;;;4.15;1.58;;;;;;;;;;10123378;28;20176;-65
2021/04/22 12:22:59;;;;;;;6.57;2.00;;;;;;;;;;10129401;28;20031;-67
2021/04/22 12:28:01;;;;;;;5.93;1.87;;;;;;;;;;10131244;28;20639;-65
2021/04/22 12:32:58;;;;;;;4.53;1.67;;;;;;;;;;10129183;28;20155;-66
2021/04/22 12:37:57;;;;;;;4.97;1.77;;;;;;;;;;10126260;28;20139;-65
2021/04/22 12:43:00;;;;;;;6.25;2.03;;;;;;;;;;10123234;28;20041;-66
2021/04/22 12:48:00;;;;;;;3.03;1.42;;;;;;;;;;10123520;28;20032;-65
2021/04/22 12:53:09;;;;;;;13.88;3.25;;;;;;;;;;10128728;28;20031;-66
2021/04/22 12:58:08;;;;;;;13.93;3.63;;;;;;;;;;10123863;28;20042;-65
2021/04/22 13:03:22;;;;;;;10.20;2.90;;;;;;;;;;10127114;28;20046;-66
2021/04/22 13:08:20;;;;;;;12.02;2.55;;;;;;;;;;10126240;28;20074;-65
2021/04/22 13:13:18;;;;;;;4.70;2.08;;;;;;;;;;10111467;28;20082;-68
2021/04/22 13:18:18;;;;;;;3.60;1.45;;;;;;;;;;10106442;28;20476;-67
2021/04/22 13:23:27;;;;;;;5.80;1.75;;;;;;;;;;10095077;28;20119;-67
2021/04/22 13:28:25;;;;;;;3.47;1.73;;;;;;;;;;10123205;28;20047;-67
2021/04/22 13:33:24;;;;;;;2.00;1.35;;;;;;;;;;10107750;28;20408;-65
2021/04/22 13:38:22;;;;;;;3.65;1.45;;;;;;;;;;10105153;28;20448;-68
2021/04/22 13:43:20;;;;;;;2.95;1.30;;;;;;;;;;10126525;28;20089;-67
2021/04/22 13:48:18;;;;;;;;;;;;;;;;;;10133906;28;20174;-66
2021/04/22 13:53:16;;;;;;;5.07;1.98;;;;;;;;;;10103803;28;20006;-65
2021/04/22 13:58:13;;;;;;;5.90;1.87;;;;;;;;;;10120973;28;20031;-65
2021/04/22 14:03:11;;;;;;;2.40;0.90;;;;;;;;;;10120170;28;20031;-66
2021/04/22 14:08:08;;;;;;;3.70;1.73;;;;;;;;;;10114703;28;20039;-65
2021/04/22 14:13:13;;;;;;;2.37;1.20;;;;;;;;;;10114913;28;20126;-66
2021/04/22 14:18:11;;;;;;;3.15;1.58;;;;;;;;;;10118421;28;20500;-66
2021/04/22 14:23:08;;;;;;;4.83;1.80;;;;;;;;;;10124625;28;20357;-67
2021/04/22 14:28:06;;;;;;;4.90;1.70;;;;;;;;;;10107768;28;20415;-65
2021/04/22 14:33:03;;;;;;;6.57;1.87;;;;;;;;;;10121323;28;20051;-64
2021/04/22 14:38:01;;;;;;;3.53;1.60;;;;;;;;;;10132908;28;20046;-65
2021/04/22 14:42:58;;;;;;;5.23;1.67;;;;;;;;;;10127332;28;20036;-65
2021/04/22 14:47:56;;;;;;;8.30;2.07;;;;;;;;;;10113401;28;20043;-65
2021/04/22 14:52:53;;;;;;;5.00;2.23;;;;;;;;;;10116746;28;20716;-65
2021/04/22 14:57:50;;;;;;;1.57;1.20;;;;;;;;;;10119847;28;20195;-65
2021/04/22 15:02:48;;;;;;;2.43;1.17;;;;;;;;;;10114781;28;20034;-64
2021/04/22 15:07:45;;;;;;;6.03;1.43;;;;;;;;;;10113407;28;20031;-65
2021/04/22 15:12:43;;;;;;;12.90;1.73;;;;;;;;;;10113817;28;20027;-65
2021/04/22 15:17:41;;;;;;;11.15;2.53;;;;;;;;;;10120648;28;20990;-68
2021/04/22 15:22:38;;;;;;;5.70;1.60;;;;;;;;;;10134710;28;20019;-65
2021/04/22 15:27:36;;;;;;;2.03;1.57;;;;;;;;;;10131889;28;20039;-65
2021/04/22 15:32:35;;;;;;;12.52;2.47;;;;;;;;;;10111154;28;20027;-66
2021/04/22 15:37:32;;;;;;;;;;;;;;;;;;10085849;29;20035;-65
2021/04/22 15:42:29;;;;;;;4.25;2.08;;;;;;;;;;10086858;29;19907;-65
2021/04/22 15:47:27;;;;;;;7.07;2.37;;;;;;;;;;10067965;28;20028;-66
2021/04/22 15:52:24;;;;;;;6.27;2.57;;;;;;;;;;10110077;29;20039;-66
2021/04/22 15:57:22;;;;;;;7.40;2.43;;;;;;;;;;10125479;28;20040;-67
2021/04/22 16:02:19;;;;;;;4.17;2.20;;;;;;;;;;10121810;28;20514;-65
2021/04/22 16:07:16;;;;;;;5.10;1.87;;;;;;;;;;10117304;28;20031;-65
2021/04/22 16:12:17;;;;;;;10.27;2.10;;;;;;;;;;10129861;28;20493;-65
2021/04/22 16:17:14;;;;;;;8.05;2.47;;;;;;;;;;10106477;28;20036;-66
2021/04/22 16:22:12;;;;;;;11.57;3.50;;;;;;;;;;10117302;28;20040;-64
2021/04/22 16:27:09;;;;;;;7.80;2.70;;;;;;;;;;10101581;28;20130;-66
2021/04/22 16:32:06;;;;;;;9.33;3.13;;;;;;;;;;10131294;28;20146;-65
2021/04/22 16:37:04;;;;;;;5.03;1.97;;;;;;;;;;10125914;28;20039;-65
2021/04/22 16:42:01;;;;;;;10.33;3.00;;;;;;;;;;10105528;28;20043;-65
2021/04/22 16:46:59;;;;;;;9.00;2.80;;;;;;;;;;10117779;28;20039;-64
2021/04/22 16:51:56;;;;;;;4.40;2.53;;;;;;;;;;10126743;28;20035;-66
2021/04/22 16:56:53;;;;;;;6.27;2.43;;;;;;;;;;10119710;28;20036;-65
2021/04/22 17:01:51;;;;;;;7.23;2.43;;;;;;;;;;10095527;28;20093;-65
2021/04/22 17:06:49;;;;;;;6.57;2.63;;;;;;;;;;10122225;28;20043;-65
2021/04/22 17:11:47;;;;;;;7.03;2.22;;;;;;;;;;10094321;28;20544;-67
2021/04/22 17:16:44;;;;;;;8.93;2.93;;;;;;;;;;10124181;28;20139;-67
2021/04/22 17:21:42;;;;;;;4.07;2.70;;;;;;;;;;10093158;28;20486;-66
2021/04/22 17:26:39;;;;;;;3.70;1.57;;;;;;;;;;10110161;28;20073;-66
2021/04/22 17:31:37;;;;;;;9.03;2.40;;;;;;;;;;10083120;28;20049;-67
2021/04/22 17:36:34;;;;;;;3.83;2.27;;;;;;;;;;10114445;28;20123;-67
2021/04/22 17:41:31;;;;;;;9.90;3.20;;;;;;;;;;10115090;28;20105;-65
2021/04/22 17:46:29;;;;;;;4.87;2.40;;;;;;;;;;10123829;28;20502;-64
2021/04/22 17:51:27;;;;;;;6.45;2.47;;;;;;;;;;10101968;28;20028;-66
2021/04/22 17:56:24;;;;;;;12.40;3.23;;;;;;;;;;10109454;28;20043;-65
2021/04/22 18:01:22;;;;;;;9.20;3.67;;;;;;;;;;10076589;28;20142;-65
2021/04/22 18:06:22;;;;;;;6.23;2.53;;;;;;;;;;10115032;29;20098;-65
2021/04/22 18:11:20;;;;;;;5.82;2.58;;;;;;;;;;10115210;28;20117;-65
2021/04/22 18:16:18;;;;;;;5.97;2.53;;;;;;;;;;10118016;28;20114;-64
2021/04/22 18:21:15;;;;;;;14.57;4.37;;;;;;;;;;10109160;28;20039;-64
2021/04/22 18:26:13;;;;;;;5.97;2.53;;;;;;;;;;10119755;28;20413;-63
2021/04/22 18:31:10;;;;;;;7.03;3.23;;;;;;;;;;10062022;29;20038;-64
2021/04/22 18:36:08;;;;;;;3.07;1.47;;;;;;;;;;10087730;29;20031;-65
2021/04/22 18:41:05;;;;;;;5.17;1.97;;;;;;;;;;10094233;29;20119;-64
2021/04/22 18:46:03;;;;;;;8.63;3.37;;;;;;;;;;10079236;28;20032;-65
2021/04/22 18:51:00;;;;;;;7.17;2.43;;;;;;;;;;10087021;29;20322;-65
2021/04/22 18:55:59;;;;;;;5.33;2.10;;;;;;;;;;10087720;29;20040;-64
2021/04/22 19:00:56;;;;;;;6.00;2.15;;;;;;;;;;10081723;28;20062;-66
2021/04/22 19:05:53;;;;;;;4.93;2.53;;;;;;;;;;10079247;28;20404;-67
2021/04/22 19:10:53;;;;;;;8.37;2.87;;;;;;;;;;10092160;29;20458;-67
2021/04/22 19:15:50;;;;;;;7.72;2.28;;;;;;;;;;10068357;29;20176;-69
2021/04/22 19:20:48;;;;;;;7.23;2.40;;;;;;;;;;10082833;29;20143;-66
2021/04/22 19:25:45;;;;;;;8.57;2.60;;;;;;;;;;10076230;29;20066;-67
2021/04/22 19:30:43;;;;;;;4.97;2.23;;;;;;;;;;10098393;28;20465;-67
2021/04/22 19:35:41;;;;;;;6.30;3.47;;;;;;;;;;10080233;28;20517;-66
2021/04/22 19:40:42;;;;;;;9.82;2.55;;;;;;;;;;10064046;29;20494;-66
2021/04/22 19:45:40;;;;;;;9.15;2.40;;;;;;;;;;10082175;28;20032;-64
2021/04/22 19:50:38;;;;;;;9.30;2.42;;;;;;;;;;10080267;29;20031;-68
2021/04/22 19:55:36;;;;;;;4.10;2.78;;;;;;;;;;10067271;28;20109;-68
2021/04/22 20:00:34;;;;;;;5.23;2.20;;;;;;;;;;10080313;28;20131;-62
2021/04/22 20:05:32;;;;;;;8.67;2.47;;;;;;;;;;10079920;29;20036;-63
2021/04/22 20:10:30;;;;;;;9.50;2.53;;;;;;;;;;10070744;28;20050;-64
2021/04/22 20:15:27;;;;;;;7.83;2.20;;;;;;;;;;10104786;28;20291;-66
2021/04/22 20:20:25;;;;;;;8.17;2.60;;;;;;;;;;10133958;28;20035;-62
2021/04/22 20:25:22;;;;;;;10.70;3.30;;;;;;;;;;10101015;28;20573;-64
2021/04/22 20:30:21;;;;;;;26.60;7.10;;;;;;;;;;10077475;28;20405;-62
2021/04/22 20:35:20;;;;;;;5.70;2.50;;;;;;;;;;10084969;28;20043;-63
2021/04/22 20:40:18;;;;;;;5.53;2.05;;;;;;;;;;10082032;28;20046;-60
2021/04/22 20:45:16;;;;;;;14.27;2.20;;;;;;;;;;10075184;28;20501;-59
2021/04/22 20:50:15;;;;;;;3.83;2.73;;;;;;;;;;10079562;28;20034;-61
2021/04/22 20:55:12;;;;;;;;;;;;;;;;;;10080301;28;20268;-60
2021/04/22 21:00:11;;;;;;;10.30;2.17;;;;;;;;;;10082788;28;19915;-64
2021/04/22 21:05:11;;;;;;;7.57;2.45;;;;;;;;;;10087115;28;20071;-66
2021/04/22 21:10:10;;;;;;;5.22;2.22;;;;;;;;;;10068420;28;20139;-62
2021/04/22 21:15:07;;;;;;;5.68;1.65;;;;;;;;;;10066171;28;20071;-63
2021/04/22 21:20:05;;;;;;;7.80;2.43;;;;;;;;;;10093153;28;20070;-63
2021/04/22 21:25:08;;;;;;;3.17;1.80;;;;;;;;;;10109265;28;20533;-63
2021/04/22 21:30:07;;;;;;;6.47;1.58;;;;;;;;;;10088314;29;20118;-63
2021/04/22 21:35:05;;;;;;;4.47;2.08;;;;;;;;;;10078231;29;20028;-64
2021/04/22 21:40:03;;;;;;;4.97;1.95;;;;;;;;;;10068891;29;20678;-66
2021/04/22 21:45:01;;;;;;;6.60;3.03;;;;;;;;;;10091096;29;20044;-60
2021/04/22 21:49:58;;;;;;;10.30;3.30;;;;;;;;;;10077231;29;20040;-62
2021/04/22 21:54:55;;;;;;;12.23;1.97;;;;;;;;;;10084691;29;20036;-61
2021/04/22 21:59:53;;;;;;;3.63;1.53;;;;;;;;;;10084083;29;20039;-62
2021/04/22 22:04:51;;;;;;;7.50;2.73;;;;;;;;;;10093074;29;20032;-60
2021/04/22 22:09:48;;;;;;;4.43;1.53;;;;;;;;;;10096543;28;20095;-61
2021/04/22 22:14:45;;;;;;;8.53;2.30;;;;;;;;;;10072524;29;20043;-60
2021/04/22 22:19:43;;;;;;;8.60;2.23;;;;;;;;;;10087155;29;20482;-59
2021/04/22 22:24:40;;;;;;;6.83;2.30;;;;;;;;;;10099411;29;20048;-62
2021/04/22 22:29:38;;;;;;;6.93;2.30;;;;;;;;;;10096690;29;20127;-60
2021/04/22 22:34:36;;;;;;;3.73;1.77;;;;;;;;;;10073013;29;20036;-63
2021/04/22 22:39:33;;;;;;;8.03;1.90;;;;;;;;;;10094951;29;20132;-62
2021/04/22 22:44:30;;;;;;;2.03;1.13;;;;;;;;;;10088535;29;20290;-59
2021/04/22 22:49:28;;;;;;;5.10;1.27;;;;;;;;;;10088090;29;20658;-63
2021/04/22 22:54:25;;;;;;;14.03;1.93;;;;;;;;;;10102583;29;20103;-62
2021/04/22 22:59:23;;;;;;;4.80;1.80;;;;;;;;;;10087114;29;20147;-62
2021/04/22 23:04:20;;;;;;;2.20;1.47;;;;;;;;;;10088981;29;20036;-62
2021/04/22 23:09:18;;;;;;;3.17;1.57;;;;;;;;;;10087501;29;20044;-65
2021/04/22 23:14:16;;;;;;;6.10;1.77;;;;;;;;;;10092822;29;20161;-59
2021/04/22 23:19:13;;;;;;;13.63;2.67;;;;;;;;;;10081617;29;20083;-61
2021/04/22 23:24:11;;;;;;;7.83;1.97;;;;;;;;;;10092736;29;20031;-61
2021/04/22 23:29:09;;;;;;;4.30;1.23;;;;;;;;;;10079302;29;20134;-60
2021/04/22 23:34:06;;;;;;;5.20;1.80;;;;;;;;;;10092590;29;20496;-57
2021/04/22 23:39:05;;;;;;;2.87;1.27;;;;;;;;;;10074714;29;20506;-59
2021/04/22 23:44:02;;;;;;;1.40;0.98;;;;;;;;;;10084570;29;20063;-61
2021/04/22 23:49:00;;;;;;;11.57;1.03;;;;;;;;;;10076231;29;20048;-60
2021/04/22 23:53:57;;;;;;;7.97;2.53;;;;;;;;;;10081035;29;20131;-66
2021/04/22 23:58:54;;;;;;;3.70;1.80;;;;;;;;;;10083251;29;20043;-60
